sensor_id;sensor_type;location;lat;lon;timestamp;P1;durP1;ratioP1;P2;durP2;ratioP2
11039;SDS011;5573;49.592;8.662;2024-02-21T00:00:19;27.13;;;25.73;;
11039;SDS011;5573;49.592;8.662;2024-02-21T00:02:47;26.90;;;25.50;;
11039;SDS011;5573;49.592;8.662;2024-02-21T00:05:14;26.63;;;25.23;;
11039;SDS011;5573;49.592;8.662;2024-02-21T00:07:44;28.13;;;26.60;;
11039;SDS011;5573;49.592;8.662;2024-02-21T00:10:12;26.43;;;25.03;;
11039;SDS011;5573;49.592;8.662;2024-02-21T00:12:40;29.10;;;27.50;;
11039;SDS011;5573;49.592;8.662;2024-02-21T00:15:08;26.20;;;24.80;;
11039;SDS011;5573;49.592;8.662;2024-02-21T00:17:36;28.67;;;27.17;;
11039;SDS011;5573;49.592;8.662;2024-02-21T00:20:04;27.63;;;26.13;;
11039;SDS011;5573;49.592;8.662;2024-02-21T00:22:33;27.33;;;25.83;;
11039;SDS011;5573;49.592;8.662;2024-02-21T00:25:02;29.63;;;28.03;;
11039;SDS011;5573;49.592;8.662;2024-02-21T00:27:30;28.00;;;26.57;;
11039;SDS011;5573;49.592;8.662;2024-02-21T00:29:58;29.50;;;27.90;;
11039;SDS011;5573;49.592;8.662;2024-02-21T00:32:26;26.13;;;24.70;;
11039;SDS011;5573;49.592;8.662;2024-02-21T00:34:54;31.27;;;29.53;;
11039;SDS011;5573;49.592;8.662;2024-02-21T00:37:22;29.97;;;28.40;;
11039;SDS011;5573;49.592;8.662;2024-02-21T00:39:49;31.53;;;29.93;;
11039;SDS011;5573;49.592;8.662;2024-02-21T00:42:18;29.13;;;27.57;;
11039;SDS011;5573;49.592;8.662;2024-02-21T00:44:47;29.90;;;28.37;;
11039;SDS011;5573;49.592;8.662;2024-02-21T00:47:15;30.07;;;28.43;;
11039;SDS011;5573;49.592;8.662;2024-02-21T00:49:43;29.05;;;27.55;;
11039;SDS011;5573;49.592;8.662;2024-02-21T00:52:11;28.30;;;26.83;;
11039;SDS011;5573;49.592;8.662;2024-02-21T00:54:39;29.07;;;27.57;;
11039;SDS011;5573;49.592;8.662;2024-02-21T00:57:20;29.27;;;27.77;;
11039;SDS011;5573;49.592;8.662;2024-02-21T00:59:48;29.00;;;27.47;;
11039;SDS011;5573;49.592;8.662;2024-02-21T01:02:15;28.87;;;27.40;;
11039;SDS011;5573;49.592;8.662;2024-02-21T01:04:44;30.03;;;28.47;;
11039;SDS011;5573;49.592;8.662;2024-02-21T01:07:11;28.87;;;27.37;;
11039;SDS011;5573;49.592;8.662;2024-02-21T01:09:40;29.10;;;27.63;;
11039;SDS011;5573;49.592;8.662;2024-02-21T01:12:07;28.43;;;26.97;;
11039;SDS011;5573;49.592;8.662;2024-02-21T01:14:36;30.73;;;29.13;;
11039;SDS011;5573;49.592;8.662;2024-02-21T01:17:04;31.10;;;29.40;;
11039;SDS011;5573;49.592;8.662;2024-02-21T01:19:32;32.40;;;30.70;;
11039;SDS011;5573;49.592;8.662;2024-02-21T01:22:00;28.73;;;27.17;;
11039;SDS011;5573;49.592;8.662;2024-02-21T01:24:28;30.80;;;29.20;;
11039;SDS011;5573;49.592;8.662;2024-02-21T01:26:56;29.83;;;28.30;;
11039;SDS011;5573;49.592;8.662;2024-02-21T01:29:23;28.43;;;26.93;;
11039;SDS011;5573;49.592;8.662;2024-02-21T01:31:52;32.23;;;30.53;;
11039;SDS011;5573;49.592;8.662;2024-02-21T01:34:20;29.17;;;27.63;;
11039;SDS011;5573;49.592;8.662;2024-02-21T01:36:48;28.77;;;27.27;;
11039;SDS011;5573;49.592;8.662;2024-02-21T01:39:16;29.40;;;27.90;;
11039;SDS011;5573;49.592;8.662;2024-02-21T01:41:44;30.20;;;28.63;;
11039;SDS011;5573;49.592;8.662;2024-02-21T01:44:11;31.77;;;30.10;;
11039;SDS011;5573;49.592;8.662;2024-02-21T01:46:39;34.07;;;32.33;;
11039;SDS011;5573;49.592;8.662;2024-02-21T01:49:09;35.03;;;33.23;;
11039;SDS011;5573;49.592;8.662;2024-02-21T01:51:37;37.00;;;35.00;;
11039;SDS011;5573;49.592;8.662;2024-02-21T01:54:06;35.73;;;33.87;;
11039;SDS011;5573;49.592;8.662;2024-02-21T01:56:33;38.57;;;36.57;;
11039;SDS011;5573;49.592;8.662;2024-02-21T01:59:01;39.20;;;37.17;;
11039;SDS011;5573;49.592;8.662;2024-02-21T02:01:29;39.20;;;37.17;;
11039;SDS011;5573;49.592;8.662;2024-02-21T02:03:57;38.50;;;36.40;;
11039;SDS011;5573;49.592;8.662;2024-02-21T02:06:28;42.03;;;39.73;;
11039;SDS011;5573;49.592;8.662;2024-02-21T02:08:57;41.33;;;39.17;;
11039;SDS011;5573;49.592;8.662;2024-02-21T02:11:25;39.03;;;37.00;;
11039;SDS011;5573;49.592;8.662;2024-02-21T02:13:53;40.10;;;38.03;;
11039;SDS011;5573;49.592;8.662;2024-02-21T02:16:21;39.03;;;37.03;;
11039;SDS011;5573;49.592;8.662;2024-02-21T02:18:49;41.60;;;39.43;;
11039;SDS011;5573;49.592;8.662;2024-02-21T02:21:21;40.33;;;38.03;;
11039;SDS011;5573;49.592;8.662;2024-02-21T02:23:55;37.63;;;35.73;;
11039;SDS011;5573;49.592;8.662;2024-02-21T02:26:23;39.87;;;37.87;;
11039;SDS011;5573;49.592;8.662;2024-02-21T02:28:51;42.17;;;39.87;;
11039;SDS011;5573;49.592;8.662;2024-02-21T02:31:19;39.00;;;36.93;;
11039;SDS011;5573;49.592;8.662;2024-02-21T02:33:47;41.10;;;38.90;;
11039;SDS011;5573;49.592;8.662;2024-02-21T02:36:15;37.97;;;36.03;;
11039;SDS011;5573;49.592;8.662;2024-02-21T02:38:44;40.10;;;38.00;;
11039;SDS011;5573;49.592;8.662;2024-02-21T02:41:13;43.43;;;41.17;;
11039;SDS011;5573;49.592;8.662;2024-02-21T02:43:41;38.53;;;36.47;;
11039;SDS011;5573;49.592;8.662;2024-02-21T02:46:09;39.50;;;36.93;;
11039;SDS011;5573;49.592;8.662;2024-02-21T02:48:37;40.87;;;38.77;;
11039;SDS011;5573;49.592;8.662;2024-02-21T02:51:05;39.30;;;37.27;;
11039;SDS011;5573;49.592;8.662;2024-02-21T02:53:33;42.90;;;40.53;;
11039;SDS011;5573;49.592;8.662;2024-02-21T02:56:01;40.10;;;37.97;;
11039;SDS011;5573;49.592;8.662;2024-02-21T02:58:30;39.10;;;36.97;;
11039;SDS011;5573;49.592;8.662;2024-02-21T03:00:57;44.23;;;41.93;;
11039;SDS011;5573;49.592;8.662;2024-02-21T03:03:25;43.83;;;41.53;;
11039;SDS011;5573;49.592;8.662;2024-02-21T03:05:53;40.73;;;38.30;;
11039;SDS011;5573;49.592;8.662;2024-02-21T03:08:21;40.13;;;38.07;;
11039;SDS011;5573;49.592;8.662;2024-02-21T03:10:49;42.07;;;39.70;;
11039;SDS011;5573;49.592;8.662;2024-02-21T03:13:17;43.10;;;40.83;;
11039;SDS011;5573;49.592;8.662;2024-02-21T03:15:46;39.90;;;37.83;;
11039;SDS011;5573;49.592;8.662;2024-02-21T03:18:14;38.20;;;36.27;;
11039;SDS011;5573;49.592;8.662;2024-02-21T03:20:42;41.93;;;39.70;;
11039;SDS011;5573;49.592;8.662;2024-02-21T03:23:10;42.07;;;39.87;;
11039;SDS011;5573;49.592;8.662;2024-02-21T03:25:38;44.97;;;42.60;;
11039;SDS011;5573;49.592;8.662;2024-02-21T03:28:06;42.90;;;40.53;;
11039;SDS011;5573;49.592;8.662;2024-02-21T03:30:33;41.70;;;39.33;;
11039;SDS011;5573;49.592;8.662;2024-02-21T03:33:03;42.50;;;40.30;;
11039;SDS011;5573;49.592;8.662;2024-02-21T03:35:31;46.13;;;43.77;;
11039;SDS011;5573;49.592;8.662;2024-02-21T03:37:59;47.17;;;44.73;;
11039;SDS011;5573;49.592;8.662;2024-02-21T03:40:27;43.00;;;40.77;;
11039;SDS011;5573;49.592;8.662;2024-02-21T03:42:54;45.07;;;42.77;;
11039;SDS011;5573;49.592;8.662;2024-02-21T03:45:22;43.87;;;41.50;;
11039;SDS011;5573;49.592;8.662;2024-02-21T03:47:50;42.73;;;40.47;;
11039;SDS011;5573;49.592;8.662;2024-02-21T03:50:19;44.97;;;42.63;;
11039;SDS011;5573;49.592;8.662;2024-02-21T03:52:47;44.37;;;41.93;;
11039;SDS011;5573;49.592;8.662;2024-02-21T03:55:15;45.17;;;42.80;;
11039;SDS011;5573;49.592;8.662;2024-02-21T03:57:42;43.23;;;40.90;;
11039;SDS011;5573;49.592;8.662;2024-02-21T04:00:11;45.23;;;42.67;;
11039;SDS011;5573;49.592;8.662;2024-02-21T04:02:39;43.43;;;41.20;;
11039;SDS011;5573;49.592;8.662;2024-02-21T04:05:07;48.83;;;46.27;;
11039;SDS011;5573;49.592;8.662;2024-02-21T04:07:39;42.90;;;40.63;;
11039;SDS011;5573;49.592;8.662;2024-02-21T04:10:07;41.13;;;39.00;;
11039;SDS011;5573;49.592;8.662;2024-02-21T04:12:35;41.90;;;39.70;;
11039;SDS011;5573;49.592;8.662;2024-02-21T04:15:04;46.37;;;43.93;;
11039;SDS011;5573;49.592;8.662;2024-02-21T04:17:32;42.63;;;40.43;;
11039;SDS011;5573;49.592;8.662;2024-02-21T04:20:02;44.90;;;42.50;;
11039;SDS011;5573;49.592;8.662;2024-02-21T04:22:32;42.67;;;40.47;;
11039;SDS011;5573;49.592;8.662;2024-02-21T04:25:02;43.40;;;41.17;;
11039;SDS011;5573;49.592;8.662;2024-02-21T04:27:30;41.90;;;39.60;;
11039;SDS011;5573;49.592;8.662;2024-02-21T04:29:58;43.63;;;41.37;;
11039;SDS011;5573;49.592;8.662;2024-02-21T04:32:26;43.63;;;41.40;;
11039;SDS011;5573;49.592;8.662;2024-02-21T04:34:54;44.60;;;42.27;;
11039;SDS011;5573;49.592;8.662;2024-02-21T04:37:23;43.87;;;41.57;;
11039;SDS011;5573;49.592;8.662;2024-02-21T04:39:51;42.50;;;40.30;;
11039;SDS011;5573;49.592;8.662;2024-02-21T04:42:20;37.37;;;35.43;;
11039;SDS011;5573;49.592;8.662;2024-02-21T04:44:48;41.50;;;39.30;;
11039;SDS011;5573;49.592;8.662;2024-02-21T04:47:16;42.73;;;40.53;;
11039;SDS011;5573;49.592;8.662;2024-02-21T04:49:44;42.93;;;40.70;;
11039;SDS011;5573;49.592;8.662;2024-02-21T04:52:12;43.40;;;41.17;;
11039;SDS011;5573;49.592;8.662;2024-02-21T04:54:40;43.07;;;40.77;;
11039;SDS011;5573;49.592;8.662;2024-02-21T04:57:08;43.70;;;41.30;;
11039;SDS011;5573;49.592;8.662;2024-02-21T04:59:37;44.30;;;41.97;;
11039;SDS011;5573;49.592;8.662;2024-02-21T05:02:05;42.50;;;40.30;;
11039;SDS011;5573;49.592;8.662;2024-02-21T05:04:34;39.70;;;37.67;;
11039;SDS011;5573;49.592;8.662;2024-02-21T05:07:04;41.70;;;39.53;;
11039;SDS011;5573;49.592;8.662;2024-02-21T05:09:32;42.47;;;40.10;;
11039;SDS011;5573;49.592;8.662;2024-02-21T05:12:00;38.53;;;36.53;;
11039;SDS011;5573;49.592;8.662;2024-02-21T05:14:28;42.13;;;39.97;;
11039;SDS011;5573;49.592;8.662;2024-02-21T05:16:57;40.37;;;38.23;;
11039;SDS011;5573;49.592;8.662;2024-02-21T05:19:25;40.13;;;38.10;;
11039;SDS011;5573;49.592;8.662;2024-02-21T05:21:53;41.60;;;39.47;;
11039;SDS011;5573;49.592;8.662;2024-02-21T05:24:21;39.73;;;37.67;;
11039;SDS011;5573;49.592;8.662;2024-02-21T05:26:49;37.33;;;35.40;;
11039;SDS011;5573;49.592;8.662;2024-02-21T05:29:17;38.50;;;36.47;;
11039;SDS011;5573;49.592;8.662;2024-02-21T05:31:58;38.60;;;36.63;;
11039;SDS011;5573;49.592;8.662;2024-02-21T05:34:26;38.50;;;36.53;;
11039;SDS011;5573;49.592;8.662;2024-02-21T05:36:54;39.63;;;37.63;;
11039;SDS011;5573;49.592;8.662;2024-02-21T05:39:24;38.60;;;36.60;;
11039;SDS011;5573;49.592;8.662;2024-02-21T05:41:52;40.57;;;38.47;;
11039;SDS011;5573;49.592;8.662;2024-02-21T05:44:20;40.97;;;38.70;;
11039;SDS011;5573;49.592;8.662;2024-02-21T05:46:48;38.30;;;36.23;;
11039;SDS011;5573;49.592;8.662;2024-02-21T05:49:18;37.23;;;35.23;;
11039;SDS011;5573;49.592;8.662;2024-02-21T05:51:46;38.77;;;36.77;;
11039;SDS011;5573;49.592;8.662;2024-02-21T05:54:14;37.80;;;35.87;;
11039;SDS011;5573;49.592;8.662;2024-02-21T05:56:43;36.77;;;34.90;;
11039;SDS011;5573;49.592;8.662;2024-02-21T05:59:11;37.80;;;35.83;;
11039;SDS011;5573;49.592;8.662;2024-02-21T06:01:39;40.27;;;38.20;;
11039;SDS011;5573;49.592;8.662;2024-02-21T06:04:07;37.33;;;35.37;;
11039;SDS011;5573;49.592;8.662;2024-02-21T06:06:36;39.60;;;37.57;;
11039;SDS011;5573;49.592;8.662;2024-02-21T06:09:04;41.50;;;39.27;;
11039;SDS011;5573;49.592;8.662;2024-02-21T06:11:32;41.90;;;39.70;;
11039;SDS011;5573;49.592;8.662;2024-02-21T06:14:01;41.57;;;39.27;;
11039;SDS011;5573;49.592;8.662;2024-02-21T06:16:29;41.23;;;39.10;;
11039;SDS011;5573;49.592;8.662;2024-02-21T06:18:57;39.83;;;37.70;;
11039;SDS011;5573;49.592;8.662;2024-02-21T06:21:28;41.77;;;39.60;;
11039;SDS011;5573;49.592;8.662;2024-02-21T06:23:58;40.27;;;38.17;;
11039;SDS011;5573;49.592;8.662;2024-02-21T06:26:25;38.30;;;36.33;;
11039;SDS011;5573;49.592;8.662;2024-02-21T06:28:53;37.57;;;35.63;;
11039;SDS011;5573;49.592;8.662;2024-02-21T06:31:21;40.10;;;37.93;;
11039;SDS011;5573;49.592;8.662;2024-02-21T06:33:49;38.97;;;36.97;;
11039;SDS011;5573;49.592;8.662;2024-02-21T06:36:17;40.67;;;38.50;;
11039;SDS011;5573;49.592;8.662;2024-02-21T06:38:45;38.67;;;36.67;;
11039;SDS011;5573;49.592;8.662;2024-02-21T06:41:17;38.00;;;35.73;;
11039;SDS011;5573;49.592;8.662;2024-02-21T06:43:46;38.90;;;36.90;;
11039;SDS011;5573;49.592;8.662;2024-02-21T06:46:22;36.73;;;34.87;;
11039;SDS011;5573;49.592;8.662;2024-02-21T06:48:51;35.67;;;33.80;;
11039;SDS011;5573;49.592;8.662;2024-02-21T06:51:19;36.03;;;34.17;;
11039;SDS011;5573;49.592;8.662;2024-02-21T06:53:47;40.40;;;38.30;;
11039;SDS011;5573;49.592;8.662;2024-02-21T06:56:14;41.93;;;39.70;;
11039;SDS011;5573;49.592;8.662;2024-02-21T06:58:43;38.90;;;36.90;;
11039;SDS011;5573;49.592;8.662;2024-02-21T07:01:11;40.10;;;38.03;;
11039;SDS011;5573;49.592;8.662;2024-02-21T07:03:39;41.47;;;39.33;;
11039;SDS011;5573;49.592;8.662;2024-02-21T07:06:07;38.33;;;36.37;;
11039;SDS011;5573;49.592;8.662;2024-02-21T07:08:35;39.00;;;36.93;;
11039;SDS011;5573;49.592;8.662;2024-02-21T07:11:02;37.67;;;35.57;;
11039;SDS011;5573;49.592;8.662;2024-02-21T07:13:31;39.20;;;37.13;;
11039;SDS011;5573;49.592;8.662;2024-02-21T07:16:01;39.00;;;36.93;;
11039;SDS011;5573;49.592;8.662;2024-02-21T07:18:29;40.73;;;38.60;;
11039;SDS011;5573;49.592;8.662;2024-02-21T07:20:57;39.20;;;37.10;;
11039;SDS011;5573;49.592;8.662;2024-02-21T07:23:25;46.00;;;43.60;;
11039;SDS011;5573;49.592;8.662;2024-02-21T07:25:53;38.33;;;36.33;;
11039;SDS011;5573;49.592;8.662;2024-02-21T07:28:22;36.20;;;34.37;;
11039;SDS011;5573;49.592;8.662;2024-02-21T07:30:50;35.33;;;33.43;;
11039;SDS011;5573;49.592;8.662;2024-02-21T07:33:19;36.83;;;34.93;;
11039;SDS011;5573;49.592;8.662;2024-02-21T07:35:46;36.80;;;34.67;;
11039;SDS011;5573;49.592;8.662;2024-02-21T07:38:14;35.50;;;33.67;;
11039;SDS011;5573;49.592;8.662;2024-02-21T07:40:44;34.83;;;33.00;;
11039;SDS011;5573;49.592;8.662;2024-02-21T07:43:12;39.57;;;37.50;;
11039;SDS011;5573;49.592;8.662;2024-02-21T07:45:40;36.70;;;34.80;;
11039;SDS011;5573;49.592;8.662;2024-02-21T07:48:08;37.87;;;35.90;;
11039;SDS011;5573;49.592;8.662;2024-02-21T07:50:38;36.10;;;34.20;;
11039;SDS011;5573;49.592;8.662;2024-02-21T07:53:06;34.33;;;32.57;;
11039;SDS011;5573;49.592;8.662;2024-02-21T07:55:34;36.03;;;34.17;;
11039;SDS011;5573;49.592;8.662;2024-02-21T07:58:02;33.37;;;31.57;;
11039;SDS011;5573;49.592;8.662;2024-02-21T08:00:29;35.17;;;33.33;;
11039;SDS011;5573;49.592;8.662;2024-02-21T08:02:57;37.07;;;35.13;;
11039;SDS011;5573;49.592;8.662;2024-02-21T08:05:25;35.23;;;33.43;;
11039;SDS011;5573;49.592;8.662;2024-02-21T08:07:54;37.50;;;35.50;;
11039;SDS011;5573;49.592;8.662;2024-02-21T08:10:24;35.23;;;33.37;;
11039;SDS011;5573;49.592;8.662;2024-02-21T08:12:52;36.20;;;34.33;;
11039;SDS011;5573;49.592;8.662;2024-02-21T08:15:19;31.37;;;29.77;;
11039;SDS011;5573;49.592;8.662;2024-02-21T08:17:50;32.27;;;30.53;;
11039;SDS011;5573;49.592;8.662;2024-02-21T08:20:18;28.97;;;27.50;;
11039;SDS011;5573;49.592;8.662;2024-02-21T08:22:46;28.60;;;27.17;;
11039;SDS011;5573;49.592;8.662;2024-02-21T08:25:17;28.30;;;26.77;;
11039;SDS011;5573;49.592;8.662;2024-02-21T08:27:45;28.40;;;26.93;;
11039;SDS011;5573;49.592;8.662;2024-02-21T08:30:13;28.33;;;26.83;;
11039;SDS011;5573;49.592;8.662;2024-02-21T08:32:41;32.23;;;30.53;;
11039;SDS011;5573;49.592;8.662;2024-02-21T08:35:09;29.50;;;27.87;;
11039;SDS011;5573;49.592;8.662;2024-02-21T08:37:38;25.10;;;23.83;;
11039;SDS011;5573;49.592;8.662;2024-02-21T08:40:06;27.80;;;26.33;;
11039;SDS011;5573;49.592;8.662;2024-02-21T08:42:37;26.07;;;24.77;;
11039;SDS011;5573;49.592;8.662;2024-02-21T08:45:07;27.90;;;26.37;;
11039;SDS011;5573;49.592;8.662;2024-02-21T08:47:35;25.93;;;24.43;;
11039;SDS011;5573;49.592;8.662;2024-02-21T08:50:04;27.83;;;26.33;;
11039;SDS011;5573;49.592;8.662;2024-02-21T08:52:44;27.13;;;25.73;;
11039;SDS011;5573;49.592;8.662;2024-02-21T08:55:12;27.93;;;26.43;;
11039;SDS011;5573;49.592;8.662;2024-02-21T08:57:41;28.77;;;27.30;;
11039;SDS011;5573;49.592;8.662;2024-02-21T09:00:09;30.83;;;29.23;;
11039;SDS011;5573;49.592;8.662;2024-02-21T09:02:39;26.60;;;25.27;;
11039;SDS011;5573;49.592;8.662;2024-02-21T09:05:09;25.67;;;24.37;;
11039;SDS011;5573;49.592;8.662;2024-02-21T09:07:37;26.23;;;24.90;;
11039;SDS011;5573;49.592;8.662;2024-02-21T09:10:05;27.13;;;25.63;;
11039;SDS011;5573;49.592;8.662;2024-02-21T09:12:34;29.60;;;28.00;;
11039;SDS011;5573;49.592;8.662;2024-02-21T09:15:03;26.67;;;25.33;;
11039;SDS011;5573;49.592;8.662;2024-02-21T09:17:32;30.97;;;29.40;;
11039;SDS011;5573;49.592;8.662;2024-02-21T09:19:59;28.43;;;26.93;;
11039;SDS011;5573;49.592;8.662;2024-02-21T09:22:30;28.90;;;27.30;;
11039;SDS011;5573;49.592;8.662;2024-02-21T09:24:58;28.52;;;27.02;;
11039;SDS011;5573;49.592;8.662;2024-02-21T09:27:26;30.17;;;28.40;;
11039;SDS011;5573;49.592;8.662;2024-02-21T09:29:54;30.52;;;28.92;;
11039;SDS011;5573;49.592;8.662;2024-02-21T09:32:23;30.35;;;28.67;;
11039;SDS011;5573;49.592;8.662;2024-02-21T09:34:51;29.08;;;27.58;;
11039;SDS011;5573;49.592;8.662;2024-02-21T09:37:25;30.77;;;29.10;;
11039;SDS011;5573;49.592;8.662;2024-02-21T09:39:53;26.23;;;24.88;;
11039;SDS011;5573;49.592;8.662;2024-02-21T09:42:21;31.13;;;29.52;;
11039;SDS011;5573;49.592;8.662;2024-02-21T09:44:48;31.73;;;30.08;;
11039;SDS011;5573;49.592;8.662;2024-02-21T09:47:19;30.73;;;29.15;;
11039;SDS011;5573;49.592;8.662;2024-02-21T09:49:52;27.88;;;26.42;;
11039;SDS011;5573;49.592;8.662;2024-02-21T09:52:23;30.90;;;29.30;;
11039;SDS011;5573;49.592;8.662;2024-02-21T09:54:54;32.08;;;30.40;;
11039;SDS011;5573;49.592;8.662;2024-02-21T09:57:23;28.77;;;27.27;;
11039;SDS011;5573;49.592;8.662;2024-02-21T09:59:51;31.27;;;29.65;;
11039;SDS011;5573;49.592;8.662;2024-02-21T10:02:20;30.35;;;28.80;;
11039;SDS011;5573;49.592;8.662;2024-02-21T10:04:49;29.50;;;27.90;;
11039;SDS011;5573;49.592;8.662;2024-02-21T10:07:17;30.13;;;28.60;;
11039;SDS011;5573;49.592;8.662;2024-02-21T10:09:49;31.25;;;29.58;;
11039;SDS011;5573;49.592;8.662;2024-02-21T10:12:16;31.25;;;29.50;;
11039;SDS011;5573;49.592;8.662;2024-02-21T10:14:45;34.05;;;32.30;;
11039;SDS011;5573;49.592;8.662;2024-02-21T10:17:15;30.55;;;28.92;;
11039;SDS011;5573;49.592;8.662;2024-02-21T10:19:45;32.75;;;30.92;;
11039;SDS011;5573;49.592;8.662;2024-02-21T10:22:15;30.05;;;28.48;;
11039;SDS011;5573;49.592;8.662;2024-02-21T10:24:47;32.58;;;30.77;;
11039;SDS011;5573;49.592;8.662;2024-02-21T10:27:15;33.05;;;31.35;;
11039;SDS011;5573;49.592;8.662;2024-02-21T10:29:42;37.08;;;35.08;;
11039;SDS011;5573;49.592;8.662;2024-02-21T10:32:17;31.88;;;30.20;;
11039;SDS011;5573;49.592;8.662;2024-02-21T10:34:44;36.70;;;34.78;;
11039;SDS011;5573;49.592;8.662;2024-02-21T10:37:15;42.63;;;40.42;;
11039;SDS011;5573;49.592;8.662;2024-02-21T10:39:43;38.40;;;36.28;;
11039;SDS011;5573;49.592;8.662;2024-02-21T10:42:11;41.03;;;38.90;;
11039;SDS011;5573;49.592;8.662;2024-02-21T10:44:40;38.72;;;36.67;;
11039;SDS011;5573;49.592;8.662;2024-02-21T10:47:09;38.10;;;36.10;;
11039;SDS011;5573;49.592;8.662;2024-02-21T10:49:40;42.25;;;40.08;;
11039;SDS011;5573;49.592;8.662;2024-02-21T10:52:13;47.45;;;44.90;;
11039;SDS011;5573;49.592;8.662;2024-02-21T10:54:47;51.38;;;48.58;;
11039;SDS011;5573;49.592;8.662;2024-02-21T10:57:20;47.20;;;44.53;;
11039;SDS011;5573;49.592;8.662;2024-02-21T10:59:49;48.97;;;46.28;;
11039;SDS011;5573;49.592;8.662;2024-02-21T11:02:18;47.60;;;45.10;;
11039;SDS011;5573;49.592;8.662;2024-02-21T11:04:47;43.75;;;41.47;;
11039;SDS011;5573;49.592;8.662;2024-02-21T11:07:16;43.83;;;41.53;;
11039;SDS011;5573;49.592;8.662;2024-02-21T11:09:51;48.40;;;45.92;;
11039;SDS011;5573;49.592;8.662;2024-02-21T11:12:22;46.15;;;43.67;;
11039;SDS011;5573;49.592;8.662;2024-02-21T11:14:52;45.22;;;42.88;;
11039;SDS011;5573;49.592;8.662;2024-02-21T11:17:20;49.67;;;47.08;;
11039;SDS011;5573;49.592;8.662;2024-02-21T11:19:52;48.90;;;46.30;;
11039;SDS011;5573;49.592;8.662;2024-02-21T11:22:21;46.53;;;44.10;;
11039;SDS011;5573;49.592;8.662;2024-02-21T11:24:52;51.05;;;48.38;;
11039;SDS011;5573;49.592;8.662;2024-02-21T11:27:21;51.30;;;48.67;;
11039;SDS011;5573;49.592;8.662;2024-02-21T11:29:54;55.30;;;52.40;;
11039;SDS011;5573;49.592;8.662;2024-02-21T11:32:23;54.55;;;51.75;;
11039;SDS011;5573;49.592;8.662;2024-02-21T11:34:54;55.97;;;53.05;;
11039;SDS011;5573;49.592;8.662;2024-02-21T11:37:24;54.83;;;51.97;;
11039;SDS011;5573;49.592;8.662;2024-02-21T11:39:55;60.80;;;57.55;;
11039;SDS011;5573;49.592;8.662;2024-02-21T11:42:24;62.60;;;59.38;;
11039;SDS011;5573;49.592;8.662;2024-02-21T11:44:52;67.55;;;64.05;;
11039;SDS011;5573;49.592;8.662;2024-02-21T11:47:23;66.43;;;62.97;;
11039;SDS011;5573;49.592;8.662;2024-02-21T11:49:51;63.25;;;59.97;;
11039;SDS011;5573;49.592;8.662;2024-02-21T11:52:21;69.15;;;65.55;;
11039;SDS011;5573;49.592;8.662;2024-02-21T11:54:51;65.53;;;62.03;;
11039;SDS011;5573;49.592;8.662;2024-02-21T11:57:22;55.78;;;52.88;;
11039;SDS011;5573;49.592;8.662;2024-02-21T11:59:50;52.63;;;49.90;;
11039;SDS011;5573;49.592;8.662;2024-02-21T12:02:25;53.50;;;50.72;;
11039;SDS011;5573;49.592;8.662;2024-02-21T12:04:54;49.63;;;47.00;;
11039;SDS011;5573;49.592;8.662;2024-02-21T12:07:23;53.13;;;50.35;;
11039;SDS011;5573;49.592;8.662;2024-02-21T12:09:51;49.83;;;47.22;;
11039;SDS011;5573;49.592;8.662;2024-02-21T12:12:19;48.60;;;45.70;;
11039;SDS011;5573;49.592;8.662;2024-02-21T12:14:54;50.20;;;47.58;;
11039;SDS011;5573;49.592;8.662;2024-02-21T12:17:23;49.83;;;47.22;;
11039;SDS011;5573;49.592;8.662;2024-02-21T12:19:51;49.08;;;46.50;;
11039;SDS011;5573;49.592;8.662;2024-02-21T12:22:19;51.45;;;48.78;;
11039;SDS011;5573;49.592;8.662;2024-02-21T12:24:47;49.05;;;46.50;;
11039;SDS011;5573;49.592;8.662;2024-02-21T12:27:15;47.78;;;45.25;;
11039;SDS011;5573;49.592;8.662;2024-02-21T12:29:44;49.50;;;46.90;;
11039;SDS011;5573;49.592;8.662;2024-02-21T12:32:12;47.88;;;45.38;;
11039;SDS011;5573;49.592;8.662;2024-02-21T12:34:40;39.25;;;37.17;;
11039;SDS011;5573;49.592;8.662;2024-02-21T12:37:19;40.25;;;38.15;;
11039;SDS011;5573;49.592;8.662;2024-02-21T12:39:48;42.35;;;40.13;;
11039;SDS011;5573;49.592;8.662;2024-02-21T12:42:15;44.83;;;42.47;;
11039;SDS011;5573;49.592;8.662;2024-02-21T12:44:45;45.20;;;42.83;;
11039;SDS011;5573;49.592;8.662;2024-02-21T12:47:13;50.38;;;47.78;;
11039;SDS011;5573;49.592;8.662;2024-02-21T12:49:41;42.97;;;40.75;;
11039;SDS011;5573;49.592;8.662;2024-02-21T12:52:12;40.55;;;38.35;;
11039;SDS011;5573;49.592;8.662;2024-02-21T12:54:40;43.33;;;41.00;;
11039;SDS011;5573;49.592;8.662;2024-02-21T12:57:08;41.72;;;39.53;;
11039;SDS011;5573;49.592;8.662;2024-02-21T12:59:36;45.08;;;42.72;;
11039;SDS011;5573;49.592;8.662;2024-02-21T13:02:05;41.60;;;39.47;;
11039;SDS011;5573;49.592;8.662;2024-02-21T13:04:35;42.65;;;40.35;;
11039;SDS011;5573;49.592;8.662;2024-02-21T13:07:06;42.08;;;39.90;;
11039;SDS011;5573;49.592;8.662;2024-02-21T13:09:34;37.28;;;35.38;;
11039;SDS011;5573;49.592;8.662;2024-02-21T13:12:02;45.08;;;42.70;;
11039;SDS011;5573;49.592;8.662;2024-02-21T13:14:31;44.80;;;42.10;;
11039;SDS011;5573;49.592;8.662;2024-02-21T13:16:59;41.38;;;39.25;;
11039;SDS011;5573;49.592;8.662;2024-02-21T13:19:28;41.60;;;39.42;;
11039;SDS011;5573;49.592;8.662;2024-02-21T13:21:56;41.15;;;39.03;;
11039;SDS011;5573;49.592;8.662;2024-02-21T13:24:24;44.83;;;42.50;;
11039;SDS011;5573;49.592;8.662;2024-02-21T13:26:52;39.63;;;37.50;;
11039;SDS011;5573;49.592;8.662;2024-02-21T13:29:20;39.55;;;37.47;;
11039;SDS011;5573;49.592;8.662;2024-02-21T13:31:48;36.40;;;34.53;;
11039;SDS011;5573;49.592;8.662;2024-02-21T13:34:16;37.40;;;35.45;;
11039;SDS011;5573;49.592;8.662;2024-02-21T13:36:46;38.63;;;36.65;;
11039;SDS011;5573;49.592;8.662;2024-02-21T13:39:14;38.03;;;36.03;;
11039;SDS011;5573;49.592;8.662;2024-02-21T13:41:42;42.17;;;39.90;;
11039;SDS011;5573;49.592;8.662;2024-02-21T13:44:11;42.15;;;39.97;;
11039;SDS011;5573;49.592;8.662;2024-02-21T13:46:39;39.90;;;37.83;;
11039;SDS011;5573;49.592;8.662;2024-02-21T13:49:07;40.80;;;38.70;;
11039;SDS011;5573;49.592;8.662;2024-02-21T13:51:35;42.17;;;40.00;;
11039;SDS011;5573;49.592;8.662;2024-02-21T13:54:05;39.42;;;37.30;;
11039;SDS011;5573;49.592;8.662;2024-02-21T13:56:35;38.80;;;36.80;;
11039;SDS011;5573;49.592;8.662;2024-02-21T13:59:03;39.85;;;37.80;;
11039;SDS011;5573;49.592;8.662;2024-02-21T14:01:31;35.70;;;33.85;;
11039;SDS011;5573;49.592;8.662;2024-02-21T14:03:59;37.65;;;35.65;;
11039;SDS011;5573;49.592;8.662;2024-02-21T14:06:27;37.30;;;35.40;;
11039;SDS011;5573;49.592;8.662;2024-02-21T14:08:55;36.20;;;34.30;;
11039;SDS011;5573;49.592;8.662;2024-02-21T14:11:24;37.00;;;35.00;;
11039;SDS011;5573;49.592;8.662;2024-02-21T14:13:53;37.45;;;35.50;;
11039;SDS011;5573;49.592;8.662;2024-02-21T14:16:25;37.72;;;35.72;;
11039;SDS011;5573;49.592;8.662;2024-02-21T14:18:53;36.30;;;34.45;;
11039;SDS011;5573;49.592;8.662;2024-02-21T14:21:21;33.60;;;31.73;;
11039;SDS011;5573;49.592;8.662;2024-02-21T14:23:49;38.33;;;36.38;;
11039;SDS011;5573;49.592;8.662;2024-02-21T14:26:17;35.70;;;33.83;;
11039;SDS011;5573;49.592;8.662;2024-02-21T14:28:47;39.38;;;37.35;;
11039;SDS011;5573;49.592;8.662;2024-02-21T14:31:15;39.05;;;37.03;;
11039;SDS011;5573;49.592;8.662;2024-02-21T14:33:43;39.13;;;37.08;;
11039;SDS011;5573;49.592;8.662;2024-02-21T14:36:13;43.75;;;41.47;;
11039;SDS011;5573;49.592;8.662;2024-02-21T14:38:41;43.40;;;41.15;;
11039;SDS011;5573;49.592;8.662;2024-02-21T14:41:10;43.63;;;41.40;;